Airfield :
LOGIN :

Register | Disclaimer

   EN    FR    IT 

 










Legend :    VFR   Marginal VFR   IFR   Intensive IFR   Very Intensive IFR
Visi :
Ceiling :
>= 8 km
>= 3000ft
5 to 8 km
1000 to 3000 ft
1500m to 5 km
500 to 1000 ft
800 to 1500m
200 to 500 ft
< 800m
< 200 ft
Symbols :   Thunderstorms  Fog  Heavy snow  Heavy precipitations  Wind > 20 kt
SIGMETs :     Misc.  Thunderstorms  Icing  Turbulence  Mountain Waves  Volcanic Ashes






- Airport Elevation : 56 ft
- IATA code : BZR


LFMU - Beziers / Vias

CURRENT METAR :
  • 260730Z AUTO 34010KT CAVOK 03/M06 Q1023 BECMG 26006KT

EXPIRED METARs :
  • 260700Z AUTO 34012KT CAVOK 03/M06 Q1023 BECMG 26006KT
  • 260630Z AUTO 32015KT CAVOK 03/M06 Q1023 BECMG 26006KT
  • 260600Z AUTO 33011KT CAVOK 03/M05 Q1022 BECMG 26006KT
  • 260530Z AUTO 32011KT CAVOK 02/M05 Q1022 BECMG 26006KT
  • 260500Z AUTO 34011KT CAVOK 02/M05 Q1021 NOSIG

TAF TAF LFMU
Valid from the 26 at 03:00 until the 27 at 03:00 UTC


260200Z 2603/2703 34014KT CAVOK
BECMG 2607/2610 26006KT
TEMPO 2700/2703 RA SCT020 BKN050
ATIS : +33 4 67 90 88 88



MET'MAP, your aeronautical weather chart ! - Copyright ORBIFLY December 2007 - Disclaimer

ORBIFLY MET'MAP TEAM :

Programming & Development : Alexandra Zaïnal
Concept & original design : Baudouin d'Aumeries
Assistance for programming : Marc-Olivier Méhu
Technical & hardware support : Manuel Goepfert

Contact : metmap@orbifly.com




SOURCES & CREDITS :

   NOAA